Latest Weather Observations for Gympie

IDQ60901

Issued at 2:15 pm EST Thursday 24 July 2014 (issued every 10 minutes, with the page automatically refreshed every 10 minutes)

About weather observations | Map of Brisbane area stations | Latest observations for Brisbane area | Other Formats
Station Details ID: 040093 Name: GYMPIE Lat: -26.18 Lon: 152.64 Height: 64.5 m
Data from the previous 72 hours. | See also: Recent months at Gympie
Date/Time
EST
Tmp

°C
App
Tmp
°C
Dew
Point
°C
Rel
Hum
%
Delta-T

°C
Wind Press
QNH
hPa
Press
MSL
hPa
Rain
since
9 am
mm
Dir
 
Spd
km/h
Gust
km/h
Spd
kts
Gust
kts
24/02:00pm 21.2 20.3 11.2 53 5.5 SE 7 13 4 7 1020.6 1020.6 0.0
24/01:30pm 21.4 20.9 12.0 55 5.3 SE 6 13 3 7 1020.7 - 0.0
24/01:00pm 20.6 19.7 11.2 55 5.2 ESE 7 11 4 6 1020.9 1020.9 0.0
24/12:30pm 21.7 20.4 11.1 51 5.9 E 9 17 5 9 1021.2 - 0.0
24/12:00pm 20.6 20.0 11.8 57 4.9 E 6 9 3 5 1021.6 1021.6 0.0
24/11:30am 20.4 20.2 11.9 58 4.7 ESE 4 9 2 5 1022.1 - 0.0
24/11:00am 20.6 20.3 12.8 61 4.4 SE 6 9 3 5 1022.8 1022.8 0.0
24/10:30am 19.5 19.1 12.5 64 3.9 SE 6 9 3 5 1023.3 - 0.0
24/10:00am 18.1 17.6 12.1 68 3.3 SSE 6 7 3 4 1023.2 1023.1 0.0
24/09:30am 16.0 16.1 11.6 75 2.4 S 2 4 1 2 1023.1 - 0.0
24/09:00am 13.5 13.7 10.7 83 1.5 CALM 0 0 0 0 1023.1 1023.0 0.2
24/08:30am 11.3 11.2 9.6 89 0.9 CALM 0 2 0 1 1022.9 - 0.2
24/08:00am 8.7 8.3 8.3 97 0.2 CALM 0 0 0 0 1022.8 1022.8 0.2
24/07:30am 6.8 6.0 6.7 99 0.0 CALM 0 0 0 0 1022.9 - 0.2
24/07:00am 5.9 4.9 5.8 99 0.0 CALM 0 0 0 0 1022.7 1022.7 0.2
24/06:30am 6.1 5.2 6.0 99 0.0 CALM 0 0 0 0 1022.2 - 0.2
24/06:00am 6.1 5.2 6.0 99 0.0 NNE 0 0 0 0 1021.8 1021.8 0.2
24/05:30am 6.5 5.6 6.2 98 0.1 CALM 0 0 0 0 1021.6 - 0.2
24/05:00am 6.6 5.8 6.3 98 0.1 CALM 0 0 0 0 1021.3 1021.3 0.2
24/04:30am 7.3 6.6 7.0 98 0.1 CALM 0 0 0 0 1021.1 - 0.2
24/04:00am 7.6 7.0 7.3 98 0.1 CALM 0 0 0 0 1021.2 1021.2 0.2
24/03:30am 8.0 7.4 7.6 97 0.2 CALM 0 0 0 0 1021.3 - 0.2
24/03:00am 8.0 7.4 7.2 95 0.4 CALM 0 0 0 0 1021.5 1021.5 0.2
24/02:30am 8.9 8.2 8.5 97 0.2 N 2 4 1 2 1021.6 - 0.2
24/02:00am 9.1 8.8 8.6 97 0.2 CALM 0 0 0 0 1021.5 1021.5 0.2
24/01:30am 9.1 8.8 8.5 96 0.3 CALM 0 0 0 0 1021.6 - 0.2
24/01:00am 9.2 8.9 8.6 96 0.3 CALM 0 0 0 0 1021.7 1021.7 0.2
24/12:30am 9.1 8.7 8.3 95 0.4 CALM 0 0 0 0 1021.7 - 0.2
24/12:00am 9.8 9.6 9.2 96 0.3 N 0 0 0 0 1021.7 1021.7 0.2
 
Date/Time
EST
Tmp

°C
App
Tmp
°C
Dew
Point
°C
Rel
Hum
%
Delta-T

°C
Wind Press
QNH
hPa
Press
MSL
hPa
Rain
since
9 am
mm
Dir
 
Spd
km/h
Gust
km/h
Spd
kts
Gust
kts
23/11:30pm 9.9 9.7 9.1 95 0.4 CALM 0 0 0 0 1021.7 - 0.2
23/11:00pm 10.0 9.7 8.8 92 0.6 CALM 0 0 0 0 1021.9 1021.9 0.2
23/10:30pm 10.7 10.6 9.3 91 0.7 CALM 0 0 0 0 1022.3 - 0.2
23/10:00pm 10.7 10.5 9.0 89 0.8 CALM 0 0 0 0 1022.4 1022.4 0.2
23/09:30pm 11.1 10.9 9.0 87 1.0 CALM 0 0 0 0 1022.2 - 0.2
23/09:00pm 12.5 12.6 10.2 86 1.2 CALM 0 0 0 0 1022.0 1022.0 0.2
23/08:30pm 12.5 12.5 9.9 84 1.3 CALM 0 0 0 0 1021.8 - 0.2
23/08:00pm 13.2 12.9 10.0 81 1.6 SW 2 4 1 2 1021.5 1021.5 0.2
23/07:30pm 13.5 13.5 9.7 78 2.0 CALM 0 0 0 0 1021.3 - 0.2
23/07:00pm 14.5 14.4 9.3 71 2.7 CALM 0 0 0 0 1021.0 1021.0 0.2
23/06:30pm 14.7 13.3 8.9 68 3.0 ESE 6 9 3 5 1021.0 - 0.2
23/06:00pm 16.2 15.0 9.4 64 3.5 ESE 6 9 3 5 1020.6 1020.6 0.2
23/05:30pm 17.1 15.8 9.3 60 4.1 E 6 11 3 6 1020.5 - 0.2
23/05:00pm 18.2 16.0 9.5 57 4.6 E 11 20 6 11 1020.1 1020.1 0.2
23/04:30pm 19.5 17.5 10.0 54 5.1 ESE 11 22 6 12 1019.8 - 0.2
23/04:00pm 20.1 17.7 8.8 48 5.9 SE 11 19 6 10 1019.5 1019.5 0.2
23/03:30pm 21.4 19.7 8.3 43 6.9 ESE 7 11 4 6 1019.4 - 0.2
23/03:00pm 21.8 20.4 9.0 44 6.8 ESE 6 13 3 7 1019.4 1019.4 0.2
23/02:30pm 21.3 19.4 8.9 45 6.6 SE 9 15 5 8 1019.3 - 0.2
23/02:00pm 21.5 20.6 9.1 45 6.6 SE 4 11 2 6 1019.8 1019.8 0.2
23/01:30pm 21.0 20.0 8.9 46 6.4 E 4 7 2 4 1019.9 - 0.2
23/01:00pm 20.9 19.8 10.1 50 5.8 SSW 6 11 3 6 1020.4 1020.4 0.2
23/12:30pm 20.0 18.8 10.4 54 5.2 SE 7 13 4 7 1020.3 - 0.2
23/12:00pm 20.5 19.8 12.0 58 4.7 SSE 7 15 4 8 1020.9 1020.9 0.2
23/11:30am 19.5 18.6 11.5 60 4.4 SSE 7 15 4 8 1021.8 - 0.2
23/11:00am 18.8 18.1 11.9 64 3.8 S 7 13 4 7 1022.2 1022.2 0.0
23/10:30am 17.8 16.7 11.8 68 3.3 SSE 9 15 5 8 1022.8 - 0.0
23/10:00am 16.0 15.9 10.7 71 2.8 SE 2 4 1 2 1023.3 1023.2 0.0
23/09:30am 14.7 14.9 10.5 76 2.2 CALM 0 0 0 0 1023.4 - 0.0
23/09:00am 12.1 12.2 10.3 89 0.9 CALM 0 2 0 1 1023.4 1023.3 1.8
23/08:30am 9.8 9.8 9.7 99 0.1 CALM 0 0 0 0 1023.2 - 1.8
23/08:00am 7.7 7.1 7.6 99 0.0 CALM 0 0 0 0 1022.6 1022.6 1.8
23/07:30am 5.7 4.7 5.6 99 0.0 CALM 0 0 0 0 1022.3 - 1.8
23/07:00am 4.9 3.7 4.8 99 0.0 CALM 0 0 0 0 1021.9 1021.9 1.8
23/06:30am 4.8 3.6 4.7 99 0.0 CALM 0 0 0 0 1021.7 - 1.8
23/06:00am 5.2 4.1 5.1 99 0.0 CALM 0 0 0 0 1021.3 1021.3 1.8
23/05:30am 5.4 4.3 5.3 99 0.0 CALM 0 0 0 0 1021.0 - 1.8
23/05:00am 5.7 4.7 5.6 99 0.0 CALM 0 0 0 0 1020.8 1020.8 1.8
23/04:30am 5.6 4.6 5.5 99 0.0 CALM 0 0 0 0 1020.5 - 1.8
23/04:00am 6.4 5.6 6.3 99 0.0 CALM 0 0 0 0 1020.2 1020.2 1.8
23/03:30am 6.4 5.6 6.3 99 0.0 CALM 0 0 0 0 1020.2 - 1.8
23/03:00am 6.2 5.3 6.1 99 0.0 CALM 0 0 0 0 1020.3 1020.3 1.8
23/02:30am 6.5 5.7 6.4 99 0.0 CALM 0 0 0 0 1020.4 - 1.8
23/02:00am 6.8 6.0 6.7 99 0.0 CALM 0 0 0 0 1020.4 1020.4 1.8
23/01:30am 7.5 6.9 7.4 99 0.0 CALM 0 0 0 0 1020.8 - 1.8
23/01:00am 7.5 6.9 7.4 99 0.0 CALM 0 0 0 0 1021.0 1021.0 1.8
23/12:30am 7.8 7.2 7.5 98 0.1 CALM 0 0 0 0 1021.1 - 1.8
23/12:00am 8.1 7.6 7.7 97 0.2 CALM 0 0 0 0 1021.1 1021.1 1.8
 
Date/Time
EST
Tmp

°C
App
Tmp
°C
Dew
Point
°C
Rel
Hum
%
Delta-T

°C
Wind Press
QNH
hPa
Press
MSL
hPa
Rain
since
9 am
mm
Dir
 
Spd
km/h
Gust
km/h
Spd
kts
Gust
kts
22/11:30pm 8.2 7.7 7.9 98 0.1 CALM 0 0 0 0 1021.2 - 1.8
22/11:00pm 8.8 8.4 8.2 96 0.3 CALM 0 0 0 0 1021.3 1021.3 1.8
22/10:30pm 9.2 8.8 8.4 95 0.4 CALM 0 0 0 0 1021.4 - 1.8
22/10:00pm 9.8 9.6 9.2 96 0.3 CALM 0 0 0 0 1021.6 1021.6 1.8
22/09:30pm 10.2 10.2 9.7 97 0.3 CALM 0 4 0 2 1021.6 - 1.8
22/09:00pm 10.1 10.0 9.3 95 0.4 CALM 0 0 0 0 1021.5 1021.5 1.8
22/08:30pm 10.5 10.5 9.7 95 0.4 CALM 0 0 0 0 1021.3 - 1.8
22/08:00pm 11.3 11.1 10.5 95 0.4 N 2 4 1 2 1021.0 1021.0 1.8
22/07:30pm 11.8 12.0 10.5 92 0.7 CALM 0 0 0 0 1020.7 - 1.8
22/07:00pm 12.3 12.5 10.5 89 0.9 CALM 0 0 0 0 1020.5 1020.5 1.8
22/06:30pm 13.0 13.2 10.4 84 1.4 CALM 0 0 0 0 1020.2 - 1.8
22/06:00pm 14.1 14.4 10.9 81 1.7 CALM 0 0 0 0 1019.7 1019.7 1.8
22/05:30pm 15.5 15.9 11.1 75 2.4 CALM 0 2 0 1 1019.2 - 1.8
22/05:00pm 16.9 16.8 10.7 67 3.3 NE 2 6 1 3 1019.0 1019.0 1.8
22/04:30pm 18.6 17.7 10.7 60 4.3 E 6 7 3 4 1018.8 - 1.8
22/04:00pm 19.1 18.4 10.1 56 4.8 ESE 4 7 2 4 1018.6 1018.6 1.8
22/03:30pm 18.9 17.6 9.9 56 4.8 E 7 15 4 8 1018.5 - 1.8
22/03:00pm 18.3 17.5 11.8 66 3.6 SSE 7 9 4 5 1018.4 1018.4 1.8
22/02:30pm 16.4 14.2 10.9 70 2.9 N 13 19 7 10 1018.2 - 1.8
22/02:00pm 16.8 12.0 8.8 59 4.1 NW 24 39 13 21 1018.6 1018.6 1.4
22/01:30pm 21.9 21.2 10.1 47 6.4 WSW 4 6 2 3 1018.4 - 0.0
22/01:00pm 21.3 19.9 8.9 45 6.6 ESE 6 11 3 6 1018.7 1018.7 0.0
22/12:30pm 21.7 20.8 10.5 49 6.1 SE 6 9 3 5 1019.3 - 0.0
22/12:00pm 21.9 21.9 11.3 51 5.9 N 2 6 1 3 1020.0 1020.0 0.0
22/11:30am 20.0 19.5 10.7 55 5.1 S 4 7 2 4 1020.8 - 0.0
22/11:00am 19.4 18.9 11.9 62 4.2 SSE 6 9 3 5 1021.2 1021.2 0.0
22/10:30am 18.3 18.2 12.1 67 3.4 SSE 4 7 2 4 1021.7 - 0.0
22/10:00am 16.6 17.0 12.4 76 2.3 SE 2 6 1 3 1022.1 1022.1 0.0
22/09:30am 13.9 13.6 11.4 85 1.3 SE 4 6 2 3 1022.4 - 0.0
22/09:00am 11.8 11.7 10.9 94 0.5 SE 2 6 1 3 1022.3 1022.3 0.0
22/08:30am 8.9 8.6 8.8 99 0.0 CALM 0 0 0 0 1022.3 - 0.0
22/08:00am 6.9 6.2 6.8 99 0.0 CALM 0 0 0 0 1022.3 1022.3 0.0
22/07:30am 6.0 5.1 5.9 99 0.0 CALM 0 0 0 0 1022.1 - 0.0
22/07:00am 5.8 4.8 5.7 99 0.0 CALM 0 0 0 0 1021.7 1021.7 0.0
22/06:30am 5.8 4.8 5.7 99 0.0 CALM 0 0 0 0 1021.6 - 0.0
22/06:00am 5.9 4.9 5.8 99 0.0 CALM 0 0 0 0 1021.3 1021.3 0.0
22/05:30am 6.1 5.2 6.0 99 0.0 CALM 0 0 0 0 1021.0 - 0.0
22/05:00am 6.3 5.4 6.2 99 0.0 CALM 0 0 0 0 1020.7 1020.7 0.0
22/04:30am 6.2 5.3 6.1 99 0.0 CALM 0 0 0 0 1020.6 - 0.0
22/04:00am 6.3 5.4 6.2 99 0.0 CALM 0 0 0 0 1020.6 1020.6 0.0
22/03:30am 6.5 5.3 6.4 99 0.0 WSW 2 4 1 2 1020.7 - 0.0
22/03:00am 6.4 5.6 6.3 99 0.0 CALM 0 0 0 0 1020.8 1020.8 0.0
22/02:30am 6.7 5.9 6.6 99 0.0 CALM 0 4 0 2 1020.8 - 0.0
22/02:00am 7.3 6.7 7.2 99 0.0 CALM 0 0 0 0 1020.9 1020.9 0.0
22/01:30am 7.4 6.7 7.1 98 0.1 CALM 0 0 0 0 1021.3 - 0.0
22/01:00am 8.1 7.6 7.8 98 0.1 CALM 0 0 0 0 1021.5 1021.5 0.0
22/12:30am 8.2 7.7 7.8 97 0.2 CALM 0 0 0 0 1021.4 - 0.0
22/12:00am 9.0 8.7 8.7 98 0.1 CALM 0 0 0 0 1021.7 1021.7 0.0
 
Date/Time
EST
Tmp

°C
App
Tmp
°C
Dew
Point
°C
Rel
Hum
%
Delta-T

°C
Wind Press
QNH
hPa
Press
MSL
hPa
Rain
since
9 am
mm
Dir
 
Spd
km/h
Gust
km/h
Spd
kts
Gust
kts
21/11:30pm 9.2 8.9 8.7 97 0.2 CALM 0 0 0 0 1021.7 - 0.0
21/11:00pm 10.0 9.9 9.4 96 0.3 CALM 0 0 0 0 1022.0 1022.0 0.0
21/10:30pm 10.6 10.7 10.1 97 0.3 CALM 0 0 0 0 1022.2 - 0.0
21/10:00pm 10.6 10.6 9.7 94 0.5 CALM 0 0 0 0 1022.1 1022.1 0.0
21/09:30pm 12.2 12.7 11.6 96 0.3 CALM 0 0 0 0 1022.1 - 0.0
21/09:00pm 12.6 13.1 11.7 94 0.5 CALM 0 0 0 0 1022.1 1022.1 0.0
21/08:30pm 13.3 13.5 11.9 91 0.8 S 2 2 1 1 1022.1 - 0.0
21/08:00pm 13.6 13.8 11.7 88 1.0 S 2 4 1 2 1022.0 1022.0 0.0
21/07:30pm 14.4 13.9 12.1 86 1.2 SSE 6 13 3 7 1021.7 - 0.0
21/07:00pm 14.9 14.4 12.0 83 1.6 SSE 6 9 3 5 1021.4 1021.4 0.0
21/06:30pm 15.5 14.4 12.1 80 1.9 SE 9 17 5 9 1021.2 - 0.0
21/06:00pm 16.1 15.6 12.1 77 2.2 SSE 6 13 3 7 1020.9 1020.9 0.0
21/05:30pm 16.8 16.2 11.7 72 2.8 SE 6 9 3 5 1020.3 - 0.0
21/05:00pm 18.3 17.1 11.6 65 3.7 SE 9 15 5 8 1020.2 1020.2 0.0
21/04:30pm 18.7 17.8 11.5 63 4.0 SE 7 13 4 7 1019.9 - 0.0
21/04:00pm 20.1 18.4 11.3 57 4.8 ESE 11 19 6 10 1019.5 1019.5 0.0
21/03:30pm 20.9 19.7 11.5 55 5.2 E 9 20 5 11 1019.3 - 0.0
21/03:00pm 21.9 20.4 10.7 49 6.2 SE 9 17 5 9 1019.3 1019.3 0.0
21/02:30pm 21.6 20.7 11.3 52 5.7 SSE 7 15 4 8 1019.3 - 0.0

Latest Capital City Observations: Canberra | Sydney | Melbourne | Brisbane | Adelaide | Perth | Hobart | Darwin

Other Formats:

Comma delimited format used in spreadsheet applications
http://www.bom.gov.au/fwo/IDQ60901/IDQ60901.94566.axf

JavaScript Object Notation format (JSON) in row-major order
http://www.bom.gov.au/fwo/IDQ60901/IDQ60901.94566.json